Terminal Aerodrome Forecast
Issued by NWS

Home | Current Version | Previous Version | Text Only | Print | Product List | Glossary Off
Versions: 1 2 3 4 5 6 7 8 9 10 11 12 13 14 15 16

000
FTUS43 KICT 082000 AAA
TAFHUT
TAF AMD
KHUT 082019Z 0820/0918 31010KT P6SM FEW150 SCT250
     FM090100 VRB03KT P6SM FEW250
     FM091500 16008KT P6SM SKC=

USA.gov is the U.S. government's official web portal to all federal, state and local government web resources and services.